Inge Skaarud Karlsen

Log

Date Distance Time Pace Comments Action
03/18/16 1,009m 5:14.1 2:35.6 View workout
03/15/16 1,000m 3:38.3 1:49.1

res: 6

View workout
03/15/16 342m 1:46.5 2:35.7 View workout
03/14/16 5,000m 24:01.0 2:24.1 View workout
03/14/16 2,000m 7:45.2 1:56.3

res: 6

View workout
03/14/16 724m 3:50.7 2:39.3 View workout
03/13/16 315m 1:00.0 1:35.2 View workout
03/13/16 2,000m 9:07.7 2:16.9 View workout
03/13/16 419m 1:34.0 1:52.1 View workout
03/13/16 557m 2:53.5 2:35.7 View workout
03/13/16 1,000m 3:39.2 1:49.6

res: 6

View workout
03/13/16 526m 2:31.6 2:24.1 View workout
03/12/16 783m 2:56.9 1:52.9 View workout
03/12/16 335m 1:35.1 2:21.9 View workout
03/12/16 1,000m 4:29.9 2:14.9 View workout
03/12/16 324m 1:00.0 1:32.5

res: 10

View workout
03/12/16 681m 3:34.2 2:37.2 View workout
03/11/16 359m 1:40.2 2:19.5

hr: 143

View workout
03/11/16 469m 1:46.1 1:53.1

hr: 167

View workout
03/11/16 1,000m 3:41.6 1:50.8

res: 6

View workout